D/T METAR WX W/DIR W/SPE G/SPE TEMP DEWP
15/01/19 20:20 EGPN 152020Z 27013KT 9999 FEW029 08/06 Q1000 W (270°) 15.0mph 8°C 6°C
15/01/19 19:50 EGPN 151950Z 26015KT 9999 FEW029 08/06 Q1000 W (260°) 17.3mph 8°C 6°C
15/01/19 19:20 EGPN 151920Z 25017KT 9999 FEW029 08/06 Q1001 WSW (250°) 19.6mph 8°C 6°C
15/01/19 18:50 EGPN 151850Z 25014KT 9999 FEW029 08/07 Q1002 WSW (250°) 16.1mph 8°C 7°C
15/01/19 18:20 EGPN 151820Z 26013KT 9999 FEW035 08/06 Q1002 W (260°) 15.0mph 8°C 6°C
15/01/19 17:20 EGPN 151720Z 27011KT 9999 FEW035 09/06 Q1003 W (270°) 12.7mph 9°C 6°C
15/01/19 16:50 EGPN 151650Z 27017KT 9999 FEW035 09/06 Q1003 W (270°) 19.6mph 9°C 6°C
15/01/19 16:20 EGPN 151620Z 26019KT 9999 FEW020 08/06 Q1003 W (260°) 21.9mph 8°C 6°C
15/01/19 15:50 EGPN 151550Z 26019KT 9999 FEW020 09/06 Q1004 W (260°) 21.9mph 9°C 6°C
15/01/19 15:20 EGPN 151520Z 27020KT 9999 FEW020 09/07 Q1004 W (270°) 23.0mph 9°C 7°C
15/01/19 14:50 EGPN 151450Z 27020KT 9999 SCT020 09/07 Q1004 W (270°) 23.0mph 9°C 7°C
15/01/19 14:20 EGPN 151420Z 27020KT 9999 SCT020 10/07 Q1004 W (270°) 23.0mph 10°C 7°C
15/01/19 13:50 EGPN 151350Z 26017KT 9999 SCT020 09/07 Q1005 W (260°) 19.6mph 9°C 7°C
15/01/19 13:20 EGPN 151320Z 27016KT 9999 SCT020 09/07 Q1005 W (270°) 18.4mph 9°C 7°C
15/01/19 12:50 EGPN 151250Z 28014KT 9999 FEW020 09/07 Q1005 W (280°) 16.1mph 9°C 7°C
15/01/19 12:20 EGPN 151220Z 28016KT 9999 FEW020 09/07 Q1006 W (280°) 18.4mph 9°C 7°C
15/01/19 11:20 EGPN 151120Z 28012KT 9999 FEW020 10/07 Q1007 W (280°) 13.8mph 10°C 7°C
15/01/19 10:50 EGPN 151050Z 27014KT 9999 FEW020 09/07 Q1007 W (270°) 16.1mph 9°C 7°C
15/01/19 10:20 EGPN 151020Z 26013KT 9999 FEW020 09/07 Q1007 W (260°) 15.0mph 9°C 7°C
15/01/19 09:50 EGPN 150950Z 27018KT 9999 FEW020 SCT043 09/07 Q1007 W (270°) 20.7mph 9°C 7°C
15/01/19 09:20 EGPN 150920Z 27019KT 9999 FEW020 SCT043 10/07 Q1007 W (270°) 21.9mph 10°C 7°C
15/01/19 08:50 EGPN 150850Z 27019KT 9999 FEW020 SCT043 10/07 Q1007 W (270°) 21.9mph 10°C 7°C
15/01/19 08:20 EGPN 150820Z 27016KT 9999 FEW020 SCT043 09/08 Q1007 W (270°) 18.4mph 9°C 8°C
15/01/19 07:50 EGPN 150750Z 27013KT 9999 SCT043 09/07 Q1007 W (270°) 15.0mph 9°C 7°C
15/01/19 07:20 EGPN 150720Z 27011KT 9999 FEW035 SCT043 09/07 Q1007 W (270°) 12.7mph 9°C 7°C
15/01/19 06:50 EGPN 150650Z 27015KT 9999 FEW035 SCT043 09/08 Q1007 W (270°) 17.3mph 9°C 8°C
14/01/19 20:20 EGPN 142020Z 29009KT 9999 FEW048 06/05 Q1013 WNW (290°) 10.4mph 6°C 5°C
14/01/19 19:50 EGPN 141950Z 28009KT 9999 FEW048 06/05 Q1014 W (280°) 10.4mph 6°C 5°C
14/01/19 19:20 EGPN 141920Z 28008KT 9999 FEW048 05/04 Q1014 W (280°) 9.2mph 5°C 4°C
14/01/19 18:50 EGPN 141850Z 28007KT 9999 FEW048 06/04 Q1015 W (280°) 8.1mph 6°C 4°C
14/01/19 18:20 EGPN 141820Z 29008KT 9999 FEW048 06/04 Q1015 WNW (290°) 9.2mph 6°C 4°C
14/01/19 17:50 EGPN 141750Z 28005KT 9999 FEW048 06/05 Q1015 W (280°) 5.8mph 6°C 5°C
14/01/19 17:20 EGPN 141720Z VRB02KT 9999 FEW048 05/04 Q1015 N (0°) 2.3mph 5°C 4°C
14/01/19 16:50 EGPN 141650Z 00000KT 9999 FEW048 05/03 Q1015 N (0°) 5°C 3°C
14/01/19 16:20 EGPN 141620Z 30003KT 9999 FEW048 05/04 Q1015 WNW (300°) 3.5mph 5°C 4°C
14/01/19 15:50 EGPN 141550Z 27009KT 9999 FEW048 06/04 Q1015 W (270°) 10.4mph 6°C 4°C
14/01/19 15:20 EGPN 141520Z 27008KT 9999 FEW048 06/04 Q1016 W (270°) 9.2mph 6°C 4°C
14/01/19 14:50 EGPN 141450Z 24005KT 9999 SCT048 05/04 Q1016 WSW (240°) 5.8mph 5°C 4°C
14/01/19 14:20 EGPN 141420Z 00000KT 9999 FEW048 05/03 Q1016 N (0°) 5°C 3°C
14/01/19 13:50 EGPN 141350Z 00000KT 9999 FEW048 05/03 Q1017 N (0°) 5°C 3°C
14/01/19 13:20 EGPN 141320Z 00000KT CAVOK 05/02 Q1017 N (0°) 5°C 2°C
14/01/19 12:50 EGPN 141250Z 27003KT CAVOK 05/03 Q1018 W (270°) 3.5mph 5°C 3°C
14/01/19 12:20 EGPN 141220Z 26004KT CAVOK 05/02 Q1018 W (260°) 4.6mph 5°C 2°C
14/01/19 11:50 EGPN 141150Z 28003KT CAVOK 04/02 Q1018 W (280°) 3.5mph 4°C 2°C
14/01/19 11:20 EGPN 141120Z 30005KT CAVOK 03/01 Q1018 WNW (300°) 5.8mph 3°C 1°C
14/01/19 10:50 EGPN 141050Z 30002KT CAVOK 03/01 Q1018 WNW (300°) 2.3mph 3°C 1°C
14/01/19 10:20 EGPN 141020Z 00000KT CAVOK 03/02 Q1018 N (0°) 3°C 2°C
14/01/19 09:50 EGPN 140950Z 00000KT 9999 FEW008 02/02 Q1019 N (0°) 2°C 2°C
14/01/19 09:20 EGPN 140920Z 00000KT 9999 FEW008 01/01 Q1018 N (0°) 1°C 1°C
14/01/19 08:50 EGPN 140850Z 31002KT 9999 FEW008 00/M00 Q1018 NW (310°) 2.3mph 0°C 0°C
14/01/19 07:50 EGPN 140750Z 00000KT 9999 FEW020 01/01 Q1018 N (0°) 1°C 1°C
14/01/19 07:20 EGPN 140720Z 00000KT 9999 FEW030 01/01 Q1017 N (0°) 1°C 1°C
14/01/19 06:50 EGPN 140650Z 33002KT 9999 FEW030 02/01 Q1017 NNW (330°) 2.3mph 2°C 1°C
13/01/19 20:50 EGPN 132050Z 26007KT 9999 FEW035 07/03 Q1007 W (260°) 8.1mph 7°C 3°C
13/01/19 20:20 EGPN 132020Z 26007KT 230V290 9999 FEW035 07/03 Q1007 W (260°) 8.1mph 7°C 3°C
13/01/19 19:50 EGPN 131950Z VRB02KT 9999 FEW030 06/02 Q1006 N (0°) 2.3mph 6°C 2°C
13/01/19 19:20 EGPN 131920Z 28010KT 9999 FEW040 06/03 Q1005 W (280°) 11.5mph 6°C 3°C
13/01/19 18:50 EGPN 131850Z 29011KT 9999 FEW030 06/03 Q1005 WNW (290°) 12.7mph 6°C 3°C
13/01/19 18:20 EGPN 131820Z 28015KT 9999 FEW030 06/03 Q1005 W (280°) 17.3mph 6°C 3°C
13/01/19 17:50 EGPN 131750Z 29012KT 9999 FEW035 07/03 Q1005 WNW (290°) 13.8mph 7°C 3°C
13/01/19 17:20 EGPN 131720Z 29013KT 9999 FEW035 07/03 Q1004 WNW (290°) 15.0mph 7°C 3°C
13/01/19 16:50 EGPN 131650Z 28010KT 9999 FEW035 07/03 Q1004 W (280°) 11.5mph 7°C 3°C
13/01/19 16:20 EGPN 131620Z 29010KT 9999 FEW035 07/03 Q1004 WNW (290°) 11.5mph 7°C 3°C
13/01/19 15:50 EGPN 131550Z 29013KT 9999 FEW035 08/03 Q1003 WNW (290°) 15.0mph 8°C 3°C
13/01/19 15:20 EGPN 131520Z 28013KT 9999 FEW036 09/04 Q1003 W (280°) 15.0mph 9°C 4°C
13/01/19 14:50 EGPN 131450Z 28015KT 9999 FEW036 09/03 Q1003 W (280°) 17.3mph 9°C 3°C
13/01/19 14:20 EGPN 131420Z 29016G26KT 9999 FEW036 10/03 Q1003 WNW (290°) 18.4mph 29.9mph 10°C 3°C
13/01/19 13:50 EGPN 131350Z 29017G28KT 9999 FEW036 10/02 Q1003 WNW (290°) 19.6mph 32.2mph 10°C 2°C
13/01/19 13:20 EGPN 131320Z 28016G26KT 9999 FEW020 10/04 Q1002 W (280°) 18.4mph 29.9mph 10°C 4°C
13/01/19 12:50 EGPN 131250Z 29017KT 9999 FEW020 10/04 Q1003 WNW (290°) 19.6mph 10°C 4°C
13/01/19 12:20 EGPN 131220Z 29012KT 260V320 9999 FEW020 10/04 Q1003 WNW (290°) 13.8mph 10°C 4°C
13/01/19 11:50 EGPN 131150Z 29011KT 9999 FEW020 10/04 Q1003 WNW (290°) 12.7mph 10°C 4°C
13/01/19 11:20 EGPN 131120Z 29014KT 9999 FEW020 10/03 Q1003 WNW (290°) 16.1mph 10°C 3°C
13/01/19 10:50 EGPN 131050Z 29014KT 9999 FEW020 10/03 Q1003 WNW (290°) 16.1mph 10°C 3°C
13/01/19 09:50 EGPN 130950Z 29015KT 9999 FEW020 10/04 Q1002 WNW (290°) 17.3mph 10°C 4°C
13/01/19 09:20 EGPN 130920Z 28016KT 9999 FEW020 10/05 Q1002 W (280°) 18.4mph 10°C 5°C
13/01/19 08:50 EGPN 130850Z 27021KT 9999 FEW020 10/05 Q1002 W (270°) 24.2mph 10°C 5°C
12/01/19 15:50 EGPN 121550Z 29004KT 9999 FEW015 SCT035 10/07 Q1009 WNW (290°) 4.6mph 10°C 7°C
12/01/19 15:20 EGPN 121520Z 29008KT 9999 FEW015 SCT035 10/07 Q1009 WNW (290°) 9.2mph 10°C 7°C
12/01/19 14:50 EGPN 121450Z 25010KT 9999 FEW015 SCT034 09/06 Q1010 WSW (250°) 11.5mph 9°C 6°C
12/01/19 14:20 EGPN 121420Z 25012KT 9999 FEW015 SCT034 09/06 Q1010 WSW (250°) 13.8mph 9°C 6°C
12/01/19 13:50 EGPN 121350Z 25016KT 9999 FEW015 SCT034 08/06 Q1010 WSW (250°) 18.4mph 8°C 6°C
12/01/19 12:50 EGPN 121250Z 26016KT 9999 FEW015 08/05 Q1011 W (260°) 18.4mph 8°C 5°C
12/01/19 12:20 EGPN 121220Z 27017KT 9999 FEW015 08/06 Q1011 W (270°) 19.6mph 8°C 6°C
12/01/19 11:50 EGPN 121150Z 27021KT 9999 FEW015 09/05 Q1011 W (270°) 24.2mph 9°C 5°C
12/01/19 11:20 EGPN 121120Z 27019KT 9999 FEW015 09/05 Q1011 W (270°) 21.9mph 9°C 5°C
12/01/19 10:50 EGPN 121050Z 27015KT 9999 FEW015 08/05 Q1012 W (270°) 17.3mph 8°C 5°C
12/01/19 10:20 EGPN 121020Z 27018KT 9999 FEW015 08/05 Q1012 W (270°) 20.7mph 8°C 5°C
12/01/19 09:50 EGPN 120950Z 28013KT 9999 FEW015 08/05 Q1012 W (280°) 15.0mph 8°C 5°C
12/01/19 09:20 EGPN 120920Z 26014KT 9999 FEW015 07/05 Q1013 W (260°) 16.1mph 7°C 5°C
12/01/19 08:50 EGPN 120850Z 27013KT 250V310 9999 FEW015 07/04 Q1013 W (270°) 15.0mph 7°C 4°C
11/01/19 20:20 EGPN 112020Z 25008KT 9999 SCT035 08/07 Q1021 WSW (250°) 9.2mph 8°C 7°C
11/01/19 19:50 EGPN 111950Z 26011KT 9999 SCT035 07/06 Q1022 W (260°) 12.7mph 7°C 6°C
11/01/19 19:20 EGPN 111920Z 27008KT 9999 SCT037 07/06 Q1023 W (270°) 9.2mph 7°C 6°C
11/01/19 18:50 EGPN 111850Z 28008KT 9999 SCT037 07/06 Q1023 W (280°) 9.2mph 7°C 6°C
11/01/19 18:20 EGPN 111820Z 28005KT 250V320 9999 SCT037 08/06 Q1023 W (280°) 5.8mph 8°C 6°C
11/01/19 17:50 EGPN 111750Z 26003KT 9999 SCT037 07/06 Q1024 W (260°) 3.5mph 7°C 6°C
11/01/19 16:50 EGPN 111650Z 28002KT 9999 SCT035 08/06 Q1025 W (280°) 2.3mph 8°C 6°C
11/01/19 16:20 EGPN 111620Z 28003KT 9999 SCT033 07/06 Q1025 W (280°) 3.5mph 7°C 6°C
11/01/19 15:50 EGPN 111550Z 28006KT 9999 SCT033 08/06 Q1025 W (280°) 6.9mph 8°C 6°C
11/01/19 15:20 EGPN 111520Z 27004KT 9999 SCT034 07/05 Q1025 W (270°) 4.6mph 7°C 5°C
11/01/19 14:50 EGPN 111450Z 28004KT 9999 SCT034 08/05 Q1026 W (280°) 4.6mph 8°C 5°C
11/01/19 14:20 EGPN 111420Z 00000KT 9999 SCT036 08/06 Q1026 N (0°) 8°C 6°C
11/01/19 13:50 EGPN 111350Z VRB02KT 9999 SCT038 08/06 Q1026 N (0°) 2.3mph 8°C 6°C
11/01/19 13:20 EGPN 111320Z 00000KT 9999 SCT038 08/06 Q1027 N (0°) 8°C 6°C
11/01/19 12:50 EGPN 111250Z 27004KT 9999 FEW040 08/05 Q1027 W (270°) 4.6mph 8°C 5°C
11/01/19 12:20 EGPN 111220Z 30005KT 9999 FEW038 06/05 Q1028 WNW (300°) 5.8mph 6°C 5°C
11/01/19 11:50 EGPN 111150Z 30005KT 9999 FEW038 06/05 Q1028 WNW (300°) 5.8mph 6°C 5°C
11/01/19 11:20 EGPN 111120Z 30004KT 9999 SCT040 07/05 Q1028 WNW (300°) 4.6mph 7°C 5°C
11/01/19 10:50 EGPN 111050Z 31004KT 9999 FEW038 07/05 Q1029 NW (310°) 4.6mph 7°C 5°C
11/01/19 10:20 EGPN 111020Z 22005KT 190V250 9999 FEW038 06/05 Q1029 SW (220°) 5.8mph 6°C 5°C
11/01/19 09:50 EGPN 110950Z VRB03KT 9999 FEW038 06/04 Q1029 N (0°) 3.5mph 6°C 4°C
11/01/19 09:20 EGPN 110920Z 30005KT 9999 FEW038 06/04 Q1029 WNW (300°) 5.8mph 6°C 4°C
11/01/19 08:50 EGPN 110850Z 31004KT 9999 FEW035 06/03 Q1029 NW (310°) 4.6mph 6°C 3°C
11/01/19 08:20 EGPN 110820Z 31003KT 9999 FEW035 05/03 Q1029 NW (310°) 3.5mph 5°C 3°C
11/01/19 07:50 EGPN 110750Z 33003KT 9999 FEW035 05/03 Q1029 NNW (330°) 3.5mph 5°C 3°C
11/01/19 07:20 EGPN 110720Z VRB03KT 9999 FEW035 05/03 Q1029 N (0°) 3.5mph 5°C 3°C
11/01/19 06:50 EGPN 110650Z 28003KT 9999 FEW035 06/03 Q1029 W (280°) 3.5mph 6°C 3°C
11/01/19 06:20 EGPN 110620Z 29006KT 9999 FEW035 06/05 Q1029 WNW (290°) 6.9mph 6°C 5°C
10/01/19 20:20 EGPN 102020Z 00000KT 9999 SCT040 06/05 Q1029 N (0°) 6°C 5°C
10/01/19 19:20 EGPN 101920Z VRB02KT 9999 SCT043 06/05 Q1029 N (0°) 2.3mph 6°C 5°C
10/01/19 18:50 EGPN 101850Z 26003KT 9999 SCT043 06/05 Q1029 W (260°) 3.5mph 6°C 5°C
10/01/19 18:20 EGPN 101820Z VRB03KT 9999 SCT046 06/05 Q1029 N (0°) 3.5mph 6°C 5°C
10/01/19 17:20 EGPN 101720Z 28004KT 9999 FEW038 07/05 Q1029 W (280°) 4.6mph 7°C 5°C
10/01/19 16:50 EGPN 101650Z 31003KT 9999 FEW038 07/05 Q1029 NW (310°) 3.5mph 7°C 5°C
10/01/19 16:20 EGPN 101620Z 31005KT 9999 FEW038 09/06 Q1028 NW (310°) 5.8mph 9°C 6°C
10/01/19 15:50 EGPN 101550Z 31005KT 9999 FEW038 09/06 Q1028 NW (310°) 5.8mph 9°C 6°C
10/01/19 15:20 EGPN 101520Z VRB02KT 9999 FEW045 07/05 Q1028 N (0°) 2.3mph 7°C 5°C
10/01/19 14:50 EGPN 101450Z 00000KT 9999 FEW045 07/06 Q1028 N (0°) 7°C 6°C
10/01/19 14:20 EGPN 101420Z 26004KT 9999 FEW045 08/06 Q1028 W (260°) 4.6mph 8°C 6°C
10/01/19 13:50 EGPN 101350Z 26005KT 9999 FEW045 08/06 Q1028 W (260°) 5.8mph 8°C 6°C
10/01/19 13:20 EGPN 101320Z VRB02KT 9999 FEW045 08/06 Q1029 N (0°) 2.3mph 8°C 6°C
10/01/19 12:50 EGPN 101250Z 00000KT CAVOK 08/06 Q1029 N (0°) 8°C 6°C
10/01/19 12:20 EGPN 101220Z VRB03KT CAVOK 07/06 Q1029 N (0°) 3.5mph 7°C 6°C
10/01/19 11:50 EGPN 101150Z 27004KT 9999 FEW045 08/07 Q1029 W (270°) 4.6mph 8°C 7°C
10/01/19 11:20 EGPN 101120Z 27003KT 9999 FEW045 08/07 Q1029 W (270°) 3.5mph 8°C 7°C
10/01/19 10:20 EGPN 101020Z 28004KT CAVOK 07/06 Q1029 W (280°) 4.6mph 7°C 6°C
10/01/19 09:50 EGPN 100950Z 28007KT CAVOK 07/06 Q1029 W (280°) 8.1mph 7°C 6°C
10/01/19 09:20 EGPN 100920Z 29006KT CAVOK 07/06 Q1029 WNW (290°) 6.9mph 7°C 6°C
10/01/19 08:50 EGPN 100850Z 29006KT CAVOK 06/05 Q1029 WNW (290°) 6.9mph 6°C 5°C
10/01/19 08:20 EGPN 100820Z 29006KT CAVOK 06/05 Q1029 WNW (290°) 6.9mph 6°C 5°C
10/01/19 07:50 EGPN 100750Z 29006KT CAVOK 06/05 Q1028 WNW (290°) 6.9mph 6°C 5°C
10/01/19 07:20 EGPN 100720Z 30005KT CAVOK 06/05 Q1028 WNW (300°) 5.8mph 6°C 5°C
10/01/19 06:20 EGPN 100620Z 28004KT CAVOK 06/05 Q1028 W (280°) 4.6mph 6°C 5°C